RJOF(METAR)
08/13 14:00
METAR RJOF 130500Z 23006KT 190V280 9999 FEW025 SCT035 33/26 Q1011
RMK 1CU025 3CU035 A2987=
戻る
トップページへ戻る
IMOC Co,.Ltd.